sensor_id;sensor_type;location;lat;lon;timestamp;P1;durP1;ratioP1;P2;durP2;ratioP2
67344;SDS011;54230;52.402;6.276;2023-09-08T00:00:00;11.5;;;6.9;;
67344;SDS011;54230;52.402;6.276;2023-09-08T00:05:00;11.7;;;7.5;;
67344;SDS011;54230;52.402;6.276;2023-09-08T00:10:00;11.2;;;7.2;;
67344;SDS011;54230;52.402;6.276;2023-09-08T00:15:00;10.8;;;6.7;;
67344;SDS011;54230;52.402;6.276;2023-09-08T00:20:00;10.5;;;7.2;;
67344;SDS011;54230;52.402;6.276;2023-09-08T00:25:00;12.5;;;7.3;;
67344;SDS011;54230;52.402;6.276;2023-09-08T00:30:00;12.3;;;6.4;;
67344;SDS011;54230;52.402;6.276;2023-09-08T00:35:00;10.6;;;7.0;;
67344;SDS011;54230;52.402;6.276;2023-09-08T00:40:00;9.5;;;6.6;;
67344;SDS011;54230;52.402;6.276;2023-09-08T00:45:00;11.1;;;7.3;;
67344;SDS011;54230;52.402;6.276;2023-09-08T00:50:00;10.3;;;7.2;;
67344;SDS011;54230;52.402;6.276;2023-09-08T00:55:00;11.3;;;7.5;;
67344;SDS011;54230;52.402;6.276;2023-09-08T01:00:00;11.5;;;7.1;;
67344;SDS011;54230;52.402;6.276;2023-09-08T01:05:00;10.8;;;6.8;;
67344;SDS011;54230;52.402;6.276;2023-09-08T01:10:00;11.0;;;7.5;;
67344;SDS011;54230;52.402;6.276;2023-09-08T01:15:00;11.7;;;7.4;;
67344;SDS011;54230;52.402;6.276;2023-09-08T01:20:01;13.3;;;7.0;;
67344;SDS011;54230;52.402;6.276;2023-09-08T01:25:04;12.4;;;7.5;;
67344;SDS011;54230;52.402;6.276;2023-09-08T01:30:01;10.8;;;7.4;;
67344;SDS011;54230;52.402;6.276;2023-09-08T01:35:00;10.6;;;6.7;;
67344;SDS011;54230;52.402;6.276;2023-09-08T01:40:00;10.7;;;7.1;;
67344;SDS011;54230;52.402;6.276;2023-09-08T01:45:00;13.7;;;7.9;;
67344;SDS011;54230;52.402;6.276;2023-09-08T01:50:00;11.1;;;8.0;;
67344;SDS011;54230;52.402;6.276;2023-09-08T01:55:00;12.6;;;7.9;;
67344;SDS011;54230;52.402;6.276;2023-09-08T02:00:00;12.0;;;8.4;;
67344;SDS011;54230;52.402;6.276;2023-09-08T02:05:00;12.4;;;8.2;;
67344;SDS011;54230;52.402;6.276;2023-09-08T02:10:00;12.4;;;8.4;;
67344;SDS011;54230;52.402;6.276;2023-09-08T02:15:00;11.1;;;7.9;;
67344;SDS011;54230;52.402;6.276;2023-09-08T02:20:00;11.5;;;8.1;;
67344;SDS011;54230;52.402;6.276;2023-09-08T02:25:00;11.8;;;8.4;;
67344;SDS011;54230;52.402;6.276;2023-09-08T02:30:00;11.8;;;8.0;;
67344;SDS011;54230;52.402;6.276;2023-09-08T02:35:00;12.2;;;8.3;;
67344;SDS011;54230;52.402;6.276;2023-09-08T02:40:01;16.5;;;9.3;;
67344;SDS011;54230;52.402;6.276;2023-09-08T02:45:00;12.6;;;9.2;;
67344;SDS011;54230;52.402;6.276;2023-09-08T02:50:00;13.0;;;9.0;;
67344;SDS011;54230;52.402;6.276;2023-09-08T02:55:00;13.8;;;9.0;;
67344;SDS011;54230;52.402;6.276;2023-09-08T03:00:00;14.6;;;9.6;;
67344;SDS011;54230;52.402;6.276;2023-09-08T03:05:00;13.8;;;9.6;;
67344;SDS011;54230;52.402;6.276;2023-09-08T03:10:00;17.5;;;9.8;;
67344;SDS011;54230;52.402;6.276;2023-09-08T03:15:00;13.2;;;9.2;;
67344;SDS011;54230;52.402;6.276;2023-09-08T03:20:00;13.0;;;9.8;;
67344;SDS011;54230;52.402;6.276;2023-09-08T03:25:00;13.8;;;10.2;;
67344;SDS011;54230;52.402;6.276;2023-09-08T03:30:00;15.6;;;10.3;;
67344;SDS011;54230;52.402;6.276;2023-09-08T03:35:00;15.9;;;10.2;;
67344;SDS011;54230;52.402;6.276;2023-09-08T03:40:00;15.8;;;10.8;;
67344;SDS011;54230;52.402;6.276;2023-09-08T03:45:00;14.0;;;10.1;;
67344;SDS011;54230;52.402;6.276;2023-09-08T03:50:00;14.0;;;9.8;;
67344;SDS011;54230;52.402;6.276;2023-09-08T03:55:00;15.6;;;9.6;;
67344;SDS011;54230;52.402;6.276;2023-09-08T04:00:00;14.6;;;10.1;;
67344;SDS011;54230;52.402;6.276;2023-09-08T04:05:00;15.6;;;10.7;;
67344;SDS011;54230;52.402;6.276;2023-09-08T04:10:00;17.9;;;10.1;;
67344;SDS011;54230;52.402;6.276;2023-09-08T04:15:00;13.6;;;9.8;;
67344;SDS011;54230;52.402;6.276;2023-09-08T04:20:00;16.9;;;10.9;;
67344;SDS011;54230;52.402;6.276;2023-09-08T04:25:00;15.5;;;10.5;;
67344;SDS011;54230;52.402;6.276;2023-09-08T04:30:00;17.4;;;11.1;;
67344;SDS011;54230;52.402;6.276;2023-09-08T04:35:00;14.3;;;10.5;;
67344;SDS011;54230;52.402;6.276;2023-09-08T04:40:00;17.8;;;10.3;;
67344;SDS011;54230;52.402;6.276;2023-09-08T04:45:00;15.2;;;10.6;;
67344;SDS011;54230;52.402;6.276;2023-09-08T04:50:00;15.8;;;11.1;;
67344;SDS011;54230;52.402;6.276;2023-09-08T04:55:00;15.1;;;11.2;;
67344;SDS011;54230;52.402;6.276;2023-09-08T05:00:00;17.6;;;10.9;;
67344;SDS011;54230;52.402;6.276;2023-09-08T05:05:00;16.1;;;11.3;;
67344;SDS011;54230;52.402;6.276;2023-09-08T05:10:00;12.8;;;8.4;;
67344;SDS011;54230;52.402;6.276;2023-09-08T05:15:00;36.7;;;12.0;;
67344;SDS011;54230;52.402;6.276;2023-09-08T05:20:00;64.7;;;19.7;;
67344;SDS011;54230;52.402;6.276;2023-09-08T05:25:00;45.5;;;15.2;;
67344;SDS011;54230;52.402;6.276;2023-09-08T05:30:00;33.8;;;11.9;;
67344;SDS011;54230;52.402;6.276;2023-09-08T05:35:00;27.1;;;10.5;;
67344;SDS011;54230;52.402;6.276;2023-09-08T05:40:00;16.5;;;9.2;;
67344;SDS011;54230;52.402;6.276;2023-09-08T05:45:00;14.0;;;9.3;;
67344;SDS011;54230;52.402;6.276;2023-09-08T05:50:00;15.2;;;8.8;;
67344;SDS011;54230;52.402;6.276;2023-09-08T05:55:00;13.3;;;8.8;;
67344;SDS011;54230;52.402;6.276;2023-09-08T06:00:00;12.9;;;8.6;;
67344;SDS011;54230;52.402;6.276;2023-09-08T06:05:00;13.2;;;9.1;;
67344;SDS011;54230;52.402;6.276;2023-09-08T06:10:00;13.0;;;9.2;;
67344;SDS011;54230;52.402;6.276;2023-09-08T06:15:01;15.1;;;9.1;;
67344;SDS011;54230;52.402;6.276;2023-09-08T06:20:00;13.5;;;8.4;;
67344;SDS011;54230;52.402;6.276;2023-09-08T06:25:00;11.7;;;8.3;;
67344;SDS011;54230;52.402;6.276;2023-09-08T06:30:00;12.6;;;8.6;;
67344;SDS011;54230;52.402;6.276;2023-09-08T06:35:00;13.3;;;7.8;;
67344;SDS011;54230;52.402;6.276;2023-09-08T06:40:00;12.9;;;8.1;;
67344;SDS011;54230;52.402;6.276;2023-09-08T06:45:00;12.3;;;7.5;;
67344;SDS011;54230;52.402;6.276;2023-09-08T06:50:00;13.8;;;8.2;;
67344;SDS011;54230;52.402;6.276;2023-09-08T06:55:00;13.5;;;8.2;;
67344;SDS011;54230;52.402;6.276;2023-09-08T07:00:00;12.7;;;8.4;;
67344;SDS011;54230;52.402;6.276;2023-09-08T07:05:00;10.7;;;7.6;;
67344;SDS011;54230;52.402;6.276;2023-09-08T07:10:00;11.3;;;7.4;;
67344;SDS011;54230;52.402;6.276;2023-09-08T07:15:00;12.6;;;8.2;;
67344;SDS011;54230;52.402;6.276;2023-09-08T07:20:00;11.7;;;7.4;;
67344;SDS011;54230;52.402;6.276;2023-09-08T07:25:00;17.0;;;7.5;;
67344;SDS011;54230;52.402;6.276;2023-09-08T07:30:00;12.7;;;7.9;;
67344;SDS011;54230;52.402;6.276;2023-09-08T07:35:00;12.7;;;7.8;;
67344;SDS011;54230;52.402;6.276;2023-09-08T07:40:00;12.8;;;7.5;;
67344;SDS011;54230;52.402;6.276;2023-09-08T07:45:00;12.6;;;7.5;;
67344;SDS011;54230;52.402;6.276;2023-09-08T07:55:00;11.7;;;7.1;;
67344;SDS011;54230;52.402;6.276;2023-09-08T08:00:00;13.2;;;6.9;;
67344;SDS011;54230;52.402;6.276;2023-09-08T08:05:00;12.7;;;7.6;;
67344;SDS011;54230;52.402;6.276;2023-09-08T08:10:00;12.4;;;7.1;;
67344;SDS011;54230;52.402;6.276;2023-09-08T08:15:00;12.8;;;7.1;;
67344;SDS011;54230;52.402;6.276;2023-09-08T08:20:00;17.0;;;7.8;;
67344;SDS011;54230;52.402;6.276;2023-09-08T08:25:00;14.8;;;7.5;;
67344;SDS011;54230;52.402;6.276;2023-09-08T08:30:00;14.1;;;8.1;;
67344;SDS011;54230;52.402;6.276;2023-09-08T08:35:00;13.1;;;7.4;;
67344;SDS011;54230;52.402;6.276;2023-09-08T08:40:00;14.7;;;8.1;;
67344;SDS011;54230;52.402;6.276;2023-09-08T08:45:00;13.9;;;8.0;;
67344;SDS011;54230;52.402;6.276;2023-09-08T08:50:00;12.8;;;7.5;;
67344;SDS011;54230;52.402;6.276;2023-09-08T08:55:00;12.1;;;7.8;;
67344;SDS011;54230;52.402;6.276;2023-09-08T09:00:00;12.9;;;7.8;;
67344;SDS011;54230;52.402;6.276;2023-09-08T09:05:00;11.4;;;7.4;;
67344;SDS011;54230;52.402;6.276;2023-09-08T09:10:00;11.6;;;6.9;;
67344;SDS011;54230;52.402;6.276;2023-09-08T09:15:00;12.7;;;7.3;;
67344;SDS011;54230;52.402;6.276;2023-09-08T09:25:00;14.1;;;7.2;;
67344;SDS011;54230;52.402;6.276;2023-09-08T09:30:00;12.0;;;7.3;;
67344;SDS011;54230;52.402;6.276;2023-09-08T09:35:00;13.5;;;7.1;;
67344;SDS011;54230;52.402;6.276;2023-09-08T09:40:00;12.3;;;6.9;;
67344;SDS011;54230;52.402;6.276;2023-09-08T09:45:00;12.7;;;7.0;;
67344;SDS011;54230;52.402;6.276;2023-09-08T09:50:00;12.8;;;7.1;;
67344;SDS011;54230;52.402;6.276;2023-09-08T09:55:00;11.8;;;6.8;;
67344;SDS011;54230;52.402;6.276;2023-09-08T10:00:00;10.5;;;6.3;;
67344;SDS011;54230;52.402;6.276;2023-09-08T10:05:08;11.9;;;6.5;;
67344;SDS011;54230;52.402;6.276;2023-09-08T10:10:00;13.2;;;6.7;;
67344;SDS011;54230;52.402;6.276;2023-09-08T10:15:00;11.0;;;6.7;;
67344;SDS011;54230;52.402;6.276;2023-09-08T10:20:00;11.3;;;6.8;;
67344;SDS011;54230;52.402;6.276;2023-09-08T10:25:01;11.8;;;7.0;;
67344;SDS011;54230;52.402;6.276;2023-09-08T10:30:00;11.1;;;6.3;;
67344;SDS011;54230;52.402;6.276;2023-09-08T10:35:00;13.2;;;6.5;;
67344;SDS011;54230;52.402;6.276;2023-09-08T10:45:01;10.6;;;6.3;;
67344;SDS011;54230;52.402;6.276;2023-09-08T10:50:00;14.5;;;6.8;;
67344;SDS011;54230;52.402;6.276;2023-09-08T10:55:00;11.9;;;6.3;;
67344;SDS011;54230;52.402;6.276;2023-09-08T11:00:01;10.0;;;6.6;;
67344;SDS011;54230;52.402;6.276;2023-09-08T11:05:00;12.6;;;7.1;;
67344;SDS011;54230;52.402;6.276;2023-09-08T11:10:00;12.4;;;6.6;;
67344;SDS011;54230;52.402;6.276;2023-09-08T11:15:01;12.2;;;6.8;;
67344;SDS011;54230;52.402;6.276;2023-09-08T11:20:00;10.5;;;6.1;;
67344;SDS011;54230;52.402;6.276;2023-09-08T11:25:00;12.3;;;7.2;;
67344;SDS011;54230;52.402;6.276;2023-09-08T11:30:00;14.3;;;6.3;;
67344;SDS011;54230;52.402;6.276;2023-09-08T11:35:01;10.5;;;6.5;;
67344;SDS011;54230;52.402;6.276;2023-09-08T11:40:00;8.8;;;6.0;;
67344;SDS011;54230;52.402;6.276;2023-09-08T11:45:00;9.4;;;6.4;;
67344;SDS011;54230;52.402;6.276;2023-09-08T11:50:00;11.0;;;6.6;;
67344;SDS011;54230;52.402;6.276;2023-09-08T11:55:00;11.8;;;6.3;;
67344;SDS011;54230;52.402;6.276;2023-09-08T12:00:00;8.8;;;5.7;;
67344;SDS011;54230;52.402;6.276;2023-09-08T12:05:00;10.8;;;5.9;;
67344;SDS011;54230;52.402;6.276;2023-09-08T12:10:06;12.2;;;5.9;;
67344;SDS011;54230;52.402;6.276;2023-09-08T12:15:00;10.0;;;5.9;;
67344;SDS011;54230;52.402;6.276;2023-09-08T12:20:00;8.8;;;5.7;;
67344;SDS011;54230;52.402;6.276;2023-09-08T12:25:00;9.6;;;5.8;;
67344;SDS011;54230;52.402;6.276;2023-09-08T12:30:00;8.7;;;5.7;;
67344;SDS011;54230;52.402;6.276;2023-09-08T12:35:02;9.7;;;5.6;;
67344;SDS011;54230;52.402;6.276;2023-09-08T12:40:00;9.2;;;5.5;;
67344;SDS011;54230;52.402;6.276;2023-09-08T12:45:00;9.9;;;5.5;;
67344;SDS011;54230;52.402;6.276;2023-09-08T12:50:00;8.4;;;5.7;;
67344;SDS011;54230;52.402;6.276;2023-09-08T12:55:00;8.2;;;5.2;;
67344;SDS011;54230;52.402;6.276;2023-09-08T13:00:00;8.3;;;5.5;;
67344;SDS011;54230;52.402;6.276;2023-09-08T13:05:00;8.5;;;5.7;;
67344;SDS011;54230;52.402;6.276;2023-09-08T13:10:00;8.8;;;5.4;;
67344;SDS011;54230;52.402;6.276;2023-09-08T13:15:00;9.8;;;5.2;;
67344;SDS011;54230;52.402;6.276;2023-09-08T13:20:00;8.9;;;5.6;;
67344;SDS011;54230;52.402;6.276;2023-09-08T13:25:00;10.0;;;5.2;;
67344;SDS011;54230;52.402;6.276;2023-09-08T13:30:08;8.6;;;5.4;;
67344;SDS011;54230;52.402;6.276;2023-09-08T13:35:00;9.4;;;5.6;;
67344;SDS011;54230;52.402;6.276;2023-09-08T13:40:00;9.0;;;5.2;;
67344;SDS011;54230;52.402;6.276;2023-09-08T13:45:00;8.9;;;5.4;;
67344;SDS011;54230;52.402;6.276;2023-09-08T13:50:00;8.1;;;5.5;;
67344;SDS011;54230;52.402;6.276;2023-09-08T13:55:00;9.2;;;5.2;;
67344;SDS011;54230;52.402;6.276;2023-09-08T14:00:00;9.9;;;5.7;;
67344;SDS011;54230;52.402;6.276;2023-09-08T14:05:00;10.1;;;5.5;;
67344;SDS011;54230;52.402;6.276;2023-09-08T14:10:00;8.7;;;5.6;;
67344;SDS011;54230;52.402;6.276;2023-09-08T14:15:00;10.1;;;5.8;;
67344;SDS011;54230;52.402;6.276;2023-09-08T14:20:00;8.9;;;5.4;;
67344;SDS011;54230;52.402;6.276;2023-09-08T14:25:00;7.8;;;6.1;;
67344;SDS011;54230;52.402;6.276;2023-09-08T14:30:00;9.0;;;5.3;;
67344;SDS011;54230;52.402;6.276;2023-09-08T14:35:00;10.0;;;5.1;;
67344;SDS011;54230;52.402;6.276;2023-09-08T14:40:00;9.0;;;5.4;;
67344;SDS011;54230;52.402;6.276;2023-09-08T14:45:00;8.8;;;5.4;;
67344;SDS011;54230;52.402;6.276;2023-09-08T14:50:00;8.6;;;5.3;;
67344;SDS011;54230;52.402;6.276;2023-09-08T14:55:00;11.9;;;5.4;;
67344;SDS011;54230;52.402;6.276;2023-09-08T15:00:00;10.0;;;5.5;;
67344;SDS011;54230;52.402;6.276;2023-09-08T15:05:00;9.4;;;5.3;;
67344;SDS011;54230;52.402;6.276;2023-09-08T15:10:00;10.2;;;5.7;;
67344;SDS011;54230;52.402;6.276;2023-09-08T15:15:00;10.0;;;5.7;;
67344;SDS011;54230;52.402;6.276;2023-09-08T15:20:00;9.5;;;5.3;;
67344;SDS011;54230;52.402;6.276;2023-09-08T15:25:00;8.4;;;5.5;;
67344;SDS011;54230;52.402;6.276;2023-09-08T15:30:00;8.2;;;5.5;;
67344;SDS011;54230;52.402;6.276;2023-09-08T15:35:00;9.0;;;5.4;;
67344;SDS011;54230;52.402;6.276;2023-09-08T15:40:00;9.7;;;5.7;;
67344;SDS011;54230;52.402;6.276;2023-09-08T15:45:00;10.7;;;5.8;;
67344;SDS011;54230;52.402;6.276;2023-09-08T15:50:00;9.9;;;5.9;;
67344;SDS011;54230;52.402;6.276;2023-09-08T15:55:00;12.0;;;6.2;;
67344;SDS011;54230;52.402;6.276;2023-09-08T16:00:00;9.4;;;6.0;;
67344;SDS011;54230;52.402;6.276;2023-09-08T16:05:00;10.9;;;6.0;;
67344;SDS011;54230;52.402;6.276;2023-09-08T16:10:00;9.2;;;6.1;;
67344;SDS011;54230;52.402;6.276;2023-09-08T16:15:00;8.8;;;6.3;;
67344;SDS011;54230;52.402;6.276;2023-09-08T16:20:00;11.7;;;6.2;;
67344;SDS011;54230;52.402;6.276;2023-09-08T16:25:00;10.0;;;5.9;;
67344;SDS011;54230;52.402;6.276;2023-09-08T16:30:00;11.4;;;6.2;;
67344;SDS011;54230;52.402;6.276;2023-09-08T16:35:00;9.8;;;6.4;;
67344;SDS011;54230;52.402;6.276;2023-09-08T16:40:00;11.4;;;6.2;;
67344;SDS011;54230;52.402;6.276;2023-09-08T16:45:00;11.2;;;6.5;;
67344;SDS011;54230;52.402;6.276;2023-09-08T16:50:00;10.3;;;5.9;;
67344;SDS011;54230;52.402;6.276;2023-09-08T16:55:00;11.8;;;6.1;;
67344;SDS011;54230;52.402;6.276;2023-09-08T17:00:00;10.2;;;6.1;;
67344;SDS011;54230;52.402;6.276;2023-09-08T17:05:00;9.3;;;6.4;;
67344;SDS011;54230;52.402;6.276;2023-09-08T17:10:00;12.3;;;6.4;;
67344;SDS011;54230;52.402;6.276;2023-09-08T17:15:00;9.7;;;5.6;;
67344;SDS011;54230;52.402;6.276;2023-09-08T17:20:00;8.9;;;6.1;;
67344;SDS011;54230;52.402;6.276;2023-09-08T17:25:00;9.9;;;6.6;;
67344;SDS011;54230;52.402;6.276;2023-09-08T17:30:00;10.3;;;6.7;;
67344;SDS011;54230;52.402;6.276;2023-09-08T17:35:00;11.6;;;7.1;;
67344;SDS011;54230;52.402;6.276;2023-09-08T17:40:00;10.9;;;7.0;;
67344;SDS011;54230;52.402;6.276;2023-09-08T17:45:00;11.3;;;7.1;;
67344;SDS011;54230;52.402;6.276;2023-09-08T17:50:00;10.2;;;7.1;;
67344;SDS011;54230;52.402;6.276;2023-09-08T17:55:00;13.2;;;7.3;;
67344;SDS011;54230;52.402;6.276;2023-09-08T18:00:00;13.3;;;6.9;;
67344;SDS011;54230;52.402;6.276;2023-09-08T18:05:00;15.2;;;7.5;;
67344;SDS011;54230;52.402;6.276;2023-09-08T18:10:00;10.8;;;6.9;;
67344;SDS011;54230;52.402;6.276;2023-09-08T18:15:00;11.7;;;8.0;;
67344;SDS011;54230;52.402;6.276;2023-09-08T18:20:00;11.3;;;8.3;;
67344;SDS011;54230;52.402;6.276;2023-09-08T18:25:00;16.6;;;9.9;;
67344;SDS011;54230;52.402;6.276;2023-09-08T18:30:00;15.3;;;9.4;;
67344;SDS011;54230;52.402;6.276;2023-09-08T18:35:00;21.3;;;10.1;;
67344;SDS011;54230;52.402;6.276;2023-09-08T18:40:00;18.6;;;9.9;;
67344;SDS011;54230;52.402;6.276;2023-09-08T18:45:00;13.9;;;9.4;;
67344;SDS011;54230;52.402;6.276;2023-09-08T18:50:00;17.7;;;10.9;;
67344;SDS011;54230;52.402;6.276;2023-09-08T18:55:00;16.5;;;10.4;;
67344;SDS011;54230;52.402;6.276;2023-09-08T19:00:00;13.9;;;10.4;;
67344;SDS011;54230;52.402;6.276;2023-09-08T19:05:00;17.8;;;11.8;;
67344;SDS011;54230;52.402;6.276;2023-09-08T19:10:00;14.6;;;11.7;;
67344;SDS011;54230;52.402;6.276;2023-09-08T19:15:00;17.4;;;11.8;;
67344;SDS011;54230;52.402;6.276;2023-09-08T19:20:00;15.3;;;12.0;;
67344;SDS011;54230;52.402;6.276;2023-09-08T19:25:00;16.3;;;11.9;;
67344;SDS011;54230;52.402;6.276;2023-09-08T19:30:00;17.0;;;12.2;;
67344;SDS011;54230;52.402;6.276;2023-09-08T19:35:00;18.1;;;13.4;;
67344;SDS011;54230;52.402;6.276;2023-09-08T19:40:00;18.1;;;11.6;;
67344;SDS011;54230;52.402;6.276;2023-09-08T19:45:00;20.1;;;13.4;;
67344;SDS011;54230;52.402;6.276;2023-09-08T19:50:00;16.0;;;11.7;;
67344;SDS011;54230;52.402;6.276;2023-09-08T19:55:00;19.6;;;11.9;;
67344;SDS011;54230;52.402;6.276;2023-09-08T20:00:00;18.9;;;12.4;;
67344;SDS011;54230;52.402;6.276;2023-09-08T20:05:00;15.9;;;12.2;;
67344;SDS011;54230;52.402;6.276;2023-09-08T20:10:00;18.0;;;11.7;;
67344;SDS011;54230;52.402;6.276;2023-09-08T20:15:00;17.7;;;12.0;;
67344;SDS011;54230;52.402;6.276;2023-09-08T20:20:00;23.2;;;13.7;;
67344;SDS011;54230;52.402;6.276;2023-09-08T20:25:00;22.4;;;14.3;;
67344;SDS011;54230;52.402;6.276;2023-09-08T20:30:00;21.7;;;13.7;;
67344;SDS011;54230;52.402;6.276;2023-09-08T20:35:00;19.4;;;13.8;;
67344;SDS011;54230;52.402;6.276;2023-09-08T20:40:00;18.4;;;13.8;;
67344;SDS011;54230;52.402;6.276;2023-09-08T20:45:00;19.1;;;13.4;;
67344;SDS011;54230;52.402;6.276;2023-09-08T20:50:00;18.2;;;13.6;;
67344;SDS011;54230;52.402;6.276;2023-09-08T20:55:00;20.9;;;16.6;;
67344;SDS011;54230;52.402;6.276;2023-09-08T21:00:00;19.7;;;15.4;;
67344;SDS011;54230;52.402;6.276;2023-09-08T21:05:00;22.0;;;17.2;;
67344;SDS011;54230;52.402;6.276;2023-09-08T21:10:00;22.3;;;17.5;;
67344;SDS011;54230;52.402;6.276;2023-09-08T21:15:00;23.7;;;16.9;;
67344;SDS011;54230;52.402;6.276;2023-09-08T21:20:00;23.1;;;17.5;;
67344;SDS011;54230;52.402;6.276;2023-09-08T21:25:00;24.5;;;18.1;;
67344;SDS011;54230;52.402;6.276;2023-09-08T21:30:01;26.1;;;18.0;;
67344;SDS011;54230;52.402;6.276;2023-09-08T21:35:00;24.8;;;17.2;;
67344;SDS011;54230;52.402;6.276;2023-09-08T21:40:00;21.1;;;16.1;;
67344;SDS011;54230;52.402;6.276;2023-09-08T21:45:00;22.1;;;17.0;;
67344;SDS011;54230;52.402;6.276;2023-09-08T21:50:00;20.8;;;16.2;;
67344;SDS011;54230;52.402;6.276;2023-09-08T21:55:00;24.1;;;18.2;;
67344;SDS011;54230;52.402;6.276;2023-09-08T22:00:00;20.6;;;16.7;;
67344;SDS011;54230;52.402;6.276;2023-09-08T22:05:00;24.2;;;18.6;;
67344;SDS011;54230;52.402;6.276;2023-09-08T22:10:00;22.2;;;17.4;;
67344;SDS011;54230;52.402;6.276;2023-09-08T22:15:00;27.5;;;20.9;;
67344;SDS011;54230;52.402;6.276;2023-09-08T22:20:00;24.1;;;18.4;;
67344;SDS011;54230;52.402;6.276;2023-09-08T22:25:00;23.0;;;17.2;;
67344;SDS011;54230;52.402;6.276;2023-09-08T22:30:00;27.9;;;21.1;;
67344;SDS011;54230;52.402;6.276;2023-09-08T22:35:00;23.8;;;18.0;;
67344;SDS011;54230;52.402;6.276;2023-09-08T22:40:00;25.9;;;18.9;;
67344;SDS011;54230;52.402;6.276;2023-09-08T22:45:00;23.2;;;16.2;;
67344;SDS011;54230;52.402;6.276;2023-09-08T22:50:00;19.5;;;14.5;;
67344;SDS011;54230;52.402;6.276;2023-09-08T22:55:00;22.4;;;17.0;;
67344;SDS011;54230;52.402;6.276;2023-09-08T23:00:00;20.3;;;14.8;;
67344;SDS011;54230;52.402;6.276;2023-09-08T23:05:00;21.1;;;16.4;;
67344;SDS011;54230;52.402;6.276;2023-09-08T23:10:00;23.3;;;17.5;;
67344;SDS011;54230;52.402;6.276;2023-09-08T23:15:00;24.2;;;17.8;;
67344;SDS011;54230;52.402;6.276;2023-09-08T23:20:00;26.3;;;19.2;;
67344;SDS011;54230;52.402;6.276;2023-09-08T23:25:00;23.7;;;17.9;;
67344;SDS011;54230;52.402;6.276;2023-09-08T23:30:00;26.0;;;19.1;;
67344;SDS011;54230;52.402;6.276;2023-09-08T23:35:00;23.8;;;18.3;;
67344;SDS011;54230;52.402;6.276;2023-09-08T23:40:00;24.5;;;18.6;;
67344;SDS011;54230;52.402;6.276;2023-09-08T23:45:00;26.4;;;18.5;;
67344;SDS011;54230;52.402;6.276;2023-09-08T23:50:00;24.7;;;18.6;;
67344;SDS011;54230;52.402;6.276;2023-09-08T23:55:00;25.4;;;19.2;;
